sensor_id;sensor_type;location;lat;lon;timestamp;temperature;humidity
67942;SHT31;54731;42.600;23.476;2022-10-22T00:01:31;8.39;72.91
67942;SHT31;54731;42.600;23.476;2022-10-22T00:03:57;8.36;73.07
67942;SHT31;54731;42.600;23.476;2022-10-22T00:06:22;8.32;73.33
67942;SHT31;54731;42.600;23.476;2022-10-22T00:08:47;8.21;73.46
67942;SHT31;54731;42.600;23.476;2022-10-22T00:11:15;8.15;73.78
67942;SHT31;54731;42.600;23.476;2022-10-22T00:13:41;8.15;74.11
67942;SHT31;54731;42.600;23.476;2022-10-22T00:16:06;8.06;74.10
67942;SHT31;54731;42.600;23.476;2022-10-22T00:18:32;8.06;74.15
67942;SHT31;54731;42.600;23.476;2022-10-22T00:20:57;8.05;74.04
67942;SHT31;54731;42.600;23.476;2022-10-22T00:23:23;8.02;74.11
67942;SHT31;54731;42.600;23.476;2022-10-22T00:25:48;7.97;74.26
67942;SHT31;54731;42.600;23.476;2022-10-22T00:28:13;7.92;74.42
67942;SHT31;54731;42.600;23.476;2022-10-22T00:30:38;7.87;74.72
67942;SHT31;54731;42.600;23.476;2022-10-22T00:33:04;7.88;74.55
67942;SHT31;54731;42.600;23.476;2022-10-22T00:35:29;7.95;74.92
67942;SHT31;54731;42.600;23.476;2022-10-22T00:37:54;7.91;74.82
67942;SHT31;54731;42.600;23.476;2022-10-22T00:40:20;7.87;74.80
67942;SHT31;54731;42.600;23.476;2022-10-22T00:42:45;7.87;74.49
67942;SHT31;54731;42.600;23.476;2022-10-22T00:50:29;7.82;75.09
67942;SHT31;54731;42.600;23.476;2022-10-22T00:52:56;7.77;75.24
67942;SHT31;54731;42.600;23.476;2022-10-22T00:55:23;7.70;75.74
67942;SHT31;54731;42.600;23.476;2022-10-22T00:57:49;7.68;75.45
67942;SHT31;54731;42.600;23.476;2022-10-22T01:00:16;7.66;75.59
67942;SHT31;54731;42.600;23.476;2022-10-22T01:02:42;7.61;75.79
67942;SHT31;54731;42.600;23.476;2022-10-22T01:05:08;7.58;75.89
67942;SHT31;54731;42.600;23.476;2022-10-22T01:07:40;7.57;76.04
67942;SHT31;54731;42.600;23.476;2022-10-22T01:10:30;7.56;75.98
67942;SHT31;54731;42.600;23.476;2022-10-22T01:18:27;7.54;76.29
67942;SHT31;54731;42.600;23.476;2022-10-22T01:29:24;7.34;76.57
67942;SHT31;54731;42.600;23.476;2022-10-22T01:31:59;7.33;76.46
67942;SHT31;54731;42.600;23.476;2022-10-22T01:34:26;7.30;76.76
67942;SHT31;54731;42.600;23.476;2022-10-22T01:36:53;7.36;77.31
67942;SHT31;54731;42.600;23.476;2022-10-22T01:39:20;7.31;77.26
67942;SHT31;54731;42.600;23.476;2022-10-22T01:41:46;7.34;77.04
67942;SHT31;54731;42.600;23.476;2022-10-22T01:44:41;7.33;76.84
67942;SHT31;54731;42.600;23.476;2022-10-22T01:47:14;7.28;77.01
67942;SHT31;54731;42.600;23.476;2022-10-22T01:54:44;7.33;77.35
67942;SHT31;54731;42.600;23.476;2022-10-22T01:57:20;7.24;77.66
67942;SHT31;54731;42.600;23.476;2022-10-22T02:00:08;7.20;77.68
67942;SHT31;54731;42.600;23.476;2022-10-22T02:07:54;7.13;77.76
67942;SHT31;54731;42.600;23.476;2022-10-22T02:10:22;7.13;77.74
67942;SHT31;54731;42.600;23.476;2022-10-22T02:12:51;7.09;77.60
67942;SHT31;54731;42.600;23.476;2022-10-22T02:15:19;7.10;77.86
67942;SHT31;54731;42.600;23.476;2022-10-22T02:17:46;7.10;77.69
67942;SHT31;54731;42.600;23.476;2022-10-22T02:20:17;7.05;77.70
67942;SHT31;54731;42.600;23.476;2022-10-22T02:22:44;7.03;77.71
67942;SHT31;54731;42.600;23.476;2022-10-22T02:25:09;7.07;77.81
67942;SHT31;54731;42.600;23.476;2022-10-22T02:28:04;7.00;78.17
67942;SHT31;54731;42.600;23.476;2022-10-22T02:30:33;6.97;78.12
67942;SHT31;54731;42.600;23.476;2022-10-22T02:35:32;6.96;77.29
67942;SHT31;54731;42.600;23.476;2022-10-22T02:37:59;6.93;78.20
67942;SHT31;54731;42.600;23.476;2022-10-22T02:40:26;6.88;78.29
67942;SHT31;54731;42.600;23.476;2022-10-22T02:42:52;6.81;78.52
67942;SHT31;54731;42.600;23.476;2022-10-22T02:45:18;6.81;78.73
67942;SHT31;54731;42.600;23.476;2022-10-22T02:47:44;6.82;78.90
67942;SHT31;54731;42.600;23.476;2022-10-22T02:50:10;6.83;78.92
67942;SHT31;54731;42.600;23.476;2022-10-22T02:52:35;6.85;78.60
67942;SHT31;54731;42.600;23.476;2022-10-22T02:55:01;6.82;78.68
67942;SHT31;54731;42.600;23.476;2022-10-22T02:57:26;6.83;78.85
67942;SHT31;54731;42.600;23.476;2022-10-22T02:59:51;6.82;78.66
67942;SHT31;54731;42.600;23.476;2022-10-22T03:02:17;6.81;78.46
67942;SHT31;54731;42.600;23.476;2022-10-22T03:04:42;6.78;78.88
67942;SHT31;54731;42.600;23.476;2022-10-22T03:07:07;6.75;78.86
67942;SHT31;54731;42.600;23.476;2022-10-22T03:09:33;6.79;78.43
67942;SHT31;54731;42.600;23.476;2022-10-22T03:11:58;6.73;78.33
67942;SHT31;54731;42.600;23.476;2022-10-22T03:14:23;6.69;78.69
67942;SHT31;54731;42.600;23.476;2022-10-22T03:16:49;6.71;78.98
67942;SHT31;54731;42.600;23.476;2022-10-22T03:19:14;6.76;79.10
67942;SHT31;54731;42.600;23.476;2022-10-22T03:21:44;6.73;79.32
67942;SHT31;54731;42.600;23.476;2022-10-22T03:24:15;6.73;79.13
67942;SHT31;54731;42.600;23.476;2022-10-22T03:26:42;6.68;79.21
67942;SHT31;54731;42.600;23.476;2022-10-22T03:29:10;6.71;79.42
67942;SHT31;54731;42.600;23.476;2022-10-22T03:31:37;6.75;79.24
67942;SHT31;54731;42.600;23.476;2022-10-22T03:34:02;6.71;79.45
67942;SHT31;54731;42.600;23.476;2022-10-22T03:36:28;6.68;79.51
67942;SHT31;54731;42.600;23.476;2022-10-22T03:38:55;6.61;79.61
67942;SHT31;54731;42.600;23.476;2022-10-22T03:41:20;6.61;79.75
67942;SHT31;54731;42.600;23.476;2022-10-22T03:43:45;6.59;79.92
67942;SHT31;54731;42.600;23.476;2022-10-22T03:46:11;6.64;79.54
67942;SHT31;54731;42.600;23.476;2022-10-22T03:48:36;6.59;79.60
67942;SHT31;54731;42.600;23.476;2022-10-22T03:51:02;6.61;79.54
67942;SHT31;54731;42.600;23.476;2022-10-22T03:53:27;6.59;79.60
67942;SHT31;54731;42.600;23.476;2022-10-22T03:55:52;6.58;79.76
67942;SHT31;54731;42.600;23.476;2022-10-22T03:58:18;6.58;79.91
67942;SHT31;54731;42.600;23.476;2022-10-22T04:00:43;6.56;79.98
67942;SHT31;54731;42.600;23.476;2022-10-22T04:03:08;6.56;79.96
67942;SHT31;54731;42.600;23.476;2022-10-22T04:05:33;6.55;80.16
67942;SHT31;54731;42.600;23.476;2022-10-22T04:07:59;6.55;80.09
67942;SHT31;54731;42.600;23.476;2022-10-22T04:10:24;6.52;80.17
67942;SHT31;54731;42.600;23.476;2022-10-22T04:12:50;6.49;80.23
67942;SHT31;54731;42.600;23.476;2022-10-22T04:15:15;6.44;80.48
67942;SHT31;54731;42.600;23.476;2022-10-22T04:17:41;6.41;80.64
67942;SHT31;54731;42.600;23.476;2022-10-22T04:20:06;6.48;80.55
67942;SHT31;54731;42.600;23.476;2022-10-22T04:22:33;6.44;80.64
67942;SHT31;54731;42.600;23.476;2022-10-22T04:24:58;6.42;80.91
67942;SHT31;54731;42.600;23.476;2022-10-22T04:27:24;6.42;80.74
67942;SHT31;54731;42.600;23.476;2022-10-22T04:29:49;6.44;80.67
67942;SHT31;54731;42.600;23.476;2022-10-22T04:32:14;6.44;80.99
67942;SHT31;54731;42.600;23.476;2022-10-22T04:34:40;6.42;81.27
67942;SHT31;54731;42.600;23.476;2022-10-22T04:37:05;6.42;81.50
67942;SHT31;54731;42.600;23.476;2022-10-22T04:39:30;6.46;81.32
67942;SHT31;54731;42.600;23.476;2022-10-22T04:41:56;6.48;81.33
67942;SHT31;54731;42.600;23.476;2022-10-22T04:44:21;6.51;81.57
67942;SHT31;54731;42.600;23.476;2022-10-22T04:46:46;6.56;81.56
67942;SHT31;54731;42.600;23.476;2022-10-22T04:49:12;6.61;81.65
67942;SHT31;54731;42.600;23.476;2022-10-22T04:51:37;6.61;81.84
67942;SHT31;54731;42.600;23.476;2022-10-22T04:54:03;6.59;81.96
67942;SHT31;54731;42.600;23.476;2022-10-22T04:56:30;6.59;81.96
67942;SHT31;54731;42.600;23.476;2022-10-22T04:59:00;6.62;81.65
67942;SHT31;54731;42.600;23.476;2022-10-22T05:01:34;6.67;81.45
67942;SHT31;54731;42.600;23.476;2022-10-22T05:04:01;6.72;81.77
67942;SHT31;54731;42.600;23.476;2022-10-22T05:06:28;6.75;81.62
67942;SHT31;54731;42.600;23.476;2022-10-22T05:08:57;6.82;81.57
67942;SHT31;54731;42.600;23.476;2022-10-22T05:11:26;6.83;81.80
67942;SHT31;54731;42.600;23.476;2022-10-22T05:13:51;6.83;81.84
67942;SHT31;54731;42.600;23.476;2022-10-22T05:16:16;6.85;81.68
67942;SHT31;54731;42.600;23.476;2022-10-22T05:18:42;6.88;81.77
67942;SHT31;54731;42.600;23.476;2022-10-22T05:21:11;6.92;81.71
67942;SHT31;54731;42.600;23.476;2022-10-22T05:23:37;6.93;81.48
67942;SHT31;54731;42.600;23.476;2022-10-22T05:26:04;6.95;81.47
67942;SHT31;54731;42.600;23.476;2022-10-22T05:28:30;6.93;81.46
67942;SHT31;54731;42.600;23.476;2022-10-22T05:30:57;6.97;81.49
67942;SHT31;54731;42.600;23.476;2022-10-22T05:33:23;6.99;81.30
67942;SHT31;54731;42.600;23.476;2022-10-22T05:35:49;6.99;81.46
67942;SHT31;54731;42.600;23.476;2022-10-22T05:38:15;7.02;81.56
67942;SHT31;54731;42.600;23.476;2022-10-22T05:40:40;7.05;81.41
67942;SHT31;54731;42.600;23.476;2022-10-22T05:43:05;7.06;81.57
67942;SHT31;54731;42.600;23.476;2022-10-22T05:45:35;7.00;81.54
67942;SHT31;54731;42.600;23.476;2022-10-22T05:48:01;7.07;81.13
67942;SHT31;54731;42.600;23.476;2022-10-22T05:50:26;7.12;81.08
67942;SHT31;54731;42.600;23.476;2022-10-22T05:52:51;7.16;80.97
67942;SHT31;54731;42.600;23.476;2022-10-22T05:55:16;7.16;80.75
67942;SHT31;54731;42.600;23.476;2022-10-22T05:57:42;7.17;80.83
67942;SHT31;54731;42.600;23.476;2022-10-22T06:00:08;7.22;80.80
67942;SHT31;54731;42.600;23.476;2022-10-22T06:02:33;7.22;80.81
67942;SHT31;54731;42.600;23.476;2022-10-22T06:04:58;7.20;81.07
67942;SHT31;54731;42.600;23.476;2022-10-22T06:07:24;7.22;80.94
67942;SHT31;54731;42.600;23.476;2022-10-22T06:09:49;7.22;80.57
67942;SHT31;54731;42.600;23.476;2022-10-22T06:12:15;7.20;80.55
67942;SHT31;54731;42.600;23.476;2022-10-22T06:14:40;7.24;80.46
67942;SHT31;54731;42.600;23.476;2022-10-22T06:17:05;7.30;80.50
67942;SHT31;54731;42.600;23.476;2022-10-22T06:19:31;7.36;80.13
67942;SHT31;54731;42.600;23.476;2022-10-22T06:21:56;7.34;80.29
67942;SHT31;54731;42.600;23.476;2022-10-22T06:24:21;7.42;80.17
67942;SHT31;54731;42.600;23.476;2022-10-22T06:26:50;7.44;80.31
67942;SHT31;54731;42.600;23.476;2022-10-22T06:29:16;7.43;80.25
67942;SHT31;54731;42.600;23.476;2022-10-22T06:31:41;7.43;80.10
67942;SHT31;54731;42.600;23.476;2022-10-22T06:34:10;7.46;80.03
67942;SHT31;54731;42.600;23.476;2022-10-22T06:36:36;7.47;79.84
67942;SHT31;54731;42.600;23.476;2022-10-22T06:39:02;7.47;79.81
67942;SHT31;54731;42.600;23.476;2022-10-22T06:41:27;7.50;79.96
67942;SHT31;54731;42.600;23.476;2022-10-22T06:43:53;7.58;79.85
67942;SHT31;54731;42.600;23.476;2022-10-22T06:46:20;7.63;79.74
67942;SHT31;54731;42.600;23.476;2022-10-22T06:49:13;7.73;78.84
67942;SHT31;54731;42.600;23.476;2022-10-22T06:51:38;7.73;78.66
67942;SHT31;54731;42.600;23.476;2022-10-22T06:54:04;7.68;78.51
67942;SHT31;54731;42.600;23.476;2022-10-22T06:56:29;7.73;78.62
67942;SHT31;54731;42.600;23.476;2022-10-22T06:58:56;7.75;78.52
67942;SHT31;54731;42.600;23.476;2022-10-22T07:01:24;7.80;78.85
67942;SHT31;54731;42.600;23.476;2022-10-22T07:03:51;7.84;78.89
67942;SHT31;54731;42.600;23.476;2022-10-22T07:06:17;7.91;78.69
67942;SHT31;54731;42.600;23.476;2022-10-22T07:08:42;7.92;78.23
67942;SHT31;54731;42.600;23.476;2022-10-22T07:11:10;7.95;78.20
67942;SHT31;54731;42.600;23.476;2022-10-22T07:13:36;8.01;78.20
67942;SHT31;54731;42.600;23.476;2022-10-22T07:16:02;8.08;78.25
67942;SHT31;54731;42.600;23.476;2022-10-22T07:18:28;8.15;78.20
67942;SHT31;54731;42.600;23.476;2022-10-22T07:20:53;8.21;78.09
67942;SHT31;54731;42.600;23.476;2022-10-22T07:23:19;8.28;78.02
67942;SHT31;54731;42.600;23.476;2022-10-22T07:25:44;8.36;77.79
67942;SHT31;54731;42.600;23.476;2022-10-22T07:28:09;8.43;77.68
67942;SHT31;54731;42.600;23.476;2022-10-22T07:30:38;8.45;77.56
67942;SHT31;54731;42.600;23.476;2022-10-22T07:33:03;8.49;77.56
67942;SHT31;54731;42.600;23.476;2022-10-22T07:35:29;8.55;77.76
67942;SHT31;54731;42.600;23.476;2022-10-22T07:37:54;8.64;77.87
67942;SHT31;54731;42.600;23.476;2022-10-22T07:40:20;8.69;77.48
67942;SHT31;54731;42.600;23.476;2022-10-22T07:42:45;8.70;77.59
67942;SHT31;54731;42.600;23.476;2022-10-22T07:45:11;8.74;77.49
67942;SHT31;54731;42.600;23.476;2022-10-22T07:47:36;8.79;77.52
67942;SHT31;54731;42.600;23.476;2022-10-22T07:50:02;8.84;77.87
67942;SHT31;54731;42.600;23.476;2022-10-22T07:52:27;8.90;77.57
67942;SHT31;54731;42.600;23.476;2022-10-22T07:54:53;8.99;77.03
67942;SHT31;54731;42.600;23.476;2022-10-22T07:57:18;9.03;77.17
67942;SHT31;54731;42.600;23.476;2022-10-22T07:59:44;9.11;76.71
67942;SHT31;54731;42.600;23.476;2022-10-22T08:02:12;9.21;76.42
67942;SHT31;54731;42.600;23.476;2022-10-22T08:04:38;9.27;76.11
67942;SHT31;54731;42.600;23.476;2022-10-22T08:07:04;9.35;76.04
67942;SHT31;54731;42.600;23.476;2022-10-22T08:09:29;9.44;75.22
67942;SHT31;54731;42.600;23.476;2022-10-22T08:11:55;9.54;75.24
67942;SHT31;54731;42.600;23.476;2022-10-22T08:14:20;9.58;74.95
67942;SHT31;54731;42.600;23.476;2022-10-22T08:16:46;9.65;74.49
67942;SHT31;54731;42.600;23.476;2022-10-22T08:19:11;9.74;74.07
67942;SHT31;54731;42.600;23.476;2022-10-22T08:21:37;9.77;74.04
67942;SHT31;54731;42.600;23.476;2022-10-22T08:24:02;9.83;74.04
67942;SHT31;54731;42.600;23.476;2022-10-22T08:26:28;9.91;74.12
67942;SHT31;54731;42.600;23.476;2022-10-22T08:28:53;10.01;73.65
67942;SHT31;54731;42.600;23.476;2022-10-22T08:31:18;10.09;73.39
67942;SHT31;54731;42.600;23.476;2022-10-22T08:33:44;10.17;73.04
67942;SHT31;54731;42.600;23.476;2022-10-22T08:36:09;10.23;73.55
67942;SHT31;54731;42.600;23.476;2022-10-22T08:38:34;10.33;71.98
67942;SHT31;54731;42.600;23.476;2022-10-22T08:41:21;10.36;71.98
67942;SHT31;54731;42.600;23.476;2022-10-22T08:44:25;10.49;72.29
67942;SHT31;54731;42.600;23.476;2022-10-22T08:49:39;10.61;71.39
67942;SHT31;54731;42.600;23.476;2022-10-22T08:52:06;10.78;70.87
67942;SHT31;54731;42.600;23.476;2022-10-22T08:54:49;10.83;70.82
67942;SHT31;54731;42.600;23.476;2022-10-22T09:08:39;11.18;70.31
67942;SHT31;54731;42.600;23.476;2022-10-22T09:13:31;11.40;67.91
67942;SHT31;54731;42.600;23.476;2022-10-22T09:16:00;11.45;68.69
67942;SHT31;54731;42.600;23.476;2022-10-22T09:18:35;11.51;68.28
67942;SHT31;54731;42.600;23.476;2022-10-22T09:21:18;11.59;67.56
67942;SHT31;54731;42.600;23.476;2022-10-22T09:26:25;11.73;68.16
67942;SHT31;54731;42.600;23.476;2022-10-22T09:28:51;11.82;66.87
67942;SHT31;54731;42.600;23.476;2022-10-22T09:31:17;11.94;66.30
67942;SHT31;54731;42.600;23.476;2022-10-22T09:33:45;12.02;65.83
67942;SHT31;54731;42.600;23.476;2022-10-22T09:36:20;12.07;66.07
67942;SHT31;54731;42.600;23.476;2022-10-22T09:38:48;12.16;66.61
67942;SHT31;54731;42.600;23.476;2022-10-22T09:41:14;12.26;66.30
67942;SHT31;54731;42.600;23.476;2022-10-22T09:43:40;12.29;65.70
67942;SHT31;54731;42.600;23.476;2022-10-22T09:46:13;12.37;64.84
67942;SHT31;54731;42.600;23.476;2022-10-22T09:49:05;12.48;64.77
67942;SHT31;54731;42.600;23.476;2022-10-22T09:51:55;12.60;64.57
67942;SHT31;54731;42.600;23.476;2022-10-22T09:57:04;12.73;64.01
67942;SHT31;54731;42.600;23.476;2022-10-22T09:59:32;12.88;64.08
67942;SHT31;54731;42.600;23.476;2022-10-22T10:02:22;13.01;64.38
67942;SHT31;54731;42.600;23.476;2022-10-22T10:04:50;13.14;62.82
67942;SHT31;54731;42.600;23.476;2022-10-22T10:07:21;13.23;62.76
67942;SHT31;54731;42.600;23.476;2022-10-22T10:09:48;13.38;62.66
67942;SHT31;54731;42.600;23.476;2022-10-22T10:17:53;13.66;61.69
67942;SHT31;54731;42.600;23.476;2022-10-22T10:23:20;13.94;61.03
67942;SHT31;54731;42.600;23.476;2022-10-22T10:26:29;14.06;59.53
67942;SHT31;54731;42.600;23.476;2022-10-22T10:35:02;14.09;60.16
67942;SHT31;54731;42.600;23.476;2022-10-22T10:40:26;14.38;59.52
67942;SHT31;54731;42.600;23.476;2022-10-22T10:43:06;14.45;58.71
67942;SHT31;54731;42.600;23.476;2022-10-22T10:48:32;14.72;57.95
67942;SHT31;54731;42.600;23.476;2022-10-22T10:56:39;15.23;57.00
67942;SHT31;54731;42.600;23.476;2022-10-22T10:59:42;15.26;56.63
67942;SHT31;54731;42.600;23.476;2022-10-22T11:05:20;15.51;56.32
67942;SHT31;54731;42.600;23.476;2022-10-22T11:07:49;15.70;55.98
67942;SHT31;54731;42.600;23.476;2022-10-22T11:10:53;15.89;56.53
67942;SHT31;54731;42.600;23.476;2022-10-22T11:13:30;16.17;55.76
67942;SHT31;54731;42.600;23.476;2022-10-22T11:16:15;16.38;54.46
67942;SHT31;54731;42.600;23.476;2022-10-22T11:26:52;17.07;51.76
67942;SHT31;54731;42.600;23.476;2022-10-22T11:29:27;17.33;52.43
67942;SHT31;54731;42.600;23.476;2022-10-22T11:31:57;17.67;52.05
67942;SHT31;54731;42.600;23.476;2022-10-22T11:34:35;18.00;50.81
67942;SHT31;54731;42.600;23.476;2022-10-22T11:37:03;18.31;49.10
67942;SHT31;54731;42.600;23.476;2022-10-22T11:39:31;18.70;49.65
67942;SHT31;54731;42.600;23.476;2022-10-22T11:41:58;19.21;48.34
67942;SHT31;54731;42.600;23.476;2022-10-22T11:44:27;19.58;46.58
67942;SHT31;54731;42.600;23.476;2022-10-22T11:46:56;19.61;45.75
67942;SHT31;54731;42.600;23.476;2022-10-22T11:49:25;19.69;45.49
67942;SHT31;54731;42.600;23.476;2022-10-22T11:52:05;20.12;44.73
67942;SHT31;54731;42.600;23.476;2022-10-22T12:02:23;20.81;43.64
67942;SHT31;54731;42.600;23.476;2022-10-22T12:04:48;20.97;43.45
67942;SHT31;54731;42.600;23.476;2022-10-22T12:09:56;21.49;41.96
67942;SHT31;54731;42.600;23.476;2022-10-22T12:12:22;21.81;42.61
67942;SHT31;54731;42.600;23.476;2022-10-22T12:14:57;22.17;41.62
67942;SHT31;54731;42.600;23.476;2022-10-22T12:17:24;22.41;40.29
67942;SHT31;54731;42.600;23.476;2022-10-22T12:20:11;22.68;39.21
67942;SHT31;54731;42.600;23.476;2022-10-22T12:22:37;22.32;39.66
67942;SHT31;54731;42.600;23.476;2022-10-22T12:25:16;22.28;39.42
67942;SHT31;54731;42.600;23.476;2022-10-22T12:27:42;22.57;39.92
67942;SHT31;54731;42.600;23.476;2022-10-22T12:30:17;22.98;39.76
67942;SHT31;54731;42.600;23.476;2022-10-22T12:32:43;23.31;38.43
67942;SHT31;54731;42.600;23.476;2022-10-22T12:35:18;23.41;37.50
67942;SHT31;54731;42.600;23.476;2022-10-22T12:37:43;23.54;39.70
67942;SHT31;54731;42.600;23.476;2022-10-22T12:40:19;23.86;39.10
67942;SHT31;54731;42.600;23.476;2022-10-22T12:42:50;24.17;38.67
67942;SHT31;54731;42.600;23.476;2022-10-22T12:45:16;24.30;38.07
67942;SHT31;54731;42.600;23.476;2022-10-22T12:47:46;24.41;38.07
67942;SHT31;54731;42.600;23.476;2022-10-22T12:50:18;24.59;37.03
67942;SHT31;54731;42.600;23.476;2022-10-22T12:52:45;24.72;36.59
67942;SHT31;54731;42.600;23.476;2022-10-22T12:55:15;24.75;36.14
67942;SHT31;54731;42.600;23.476;2022-10-22T12:57:41;24.74;36.39
67942;SHT31;54731;42.600;23.476;2022-10-22T13:00:19;24.82;36.66
67942;SHT31;54731;42.600;23.476;2022-10-22T13:02:45;24.87;36.05
67942;SHT31;54731;42.600;23.476;2022-10-22T13:07:46;24.68;35.62
67942;SHT31;54731;42.600;23.476;2022-10-22T13:12:49;24.60;35.88
67942;SHT31;54731;42.600;23.476;2022-10-22T13:20:28;24.78;36.60
67942;SHT31;54731;42.600;23.476;2022-10-22T13:23:02;24.85;35.74
67942;SHT31;54731;42.600;23.476;2022-10-22T13:25:32;24.81;36.50
67942;SHT31;54731;42.600;23.476;2022-10-22T13:28:01;24.64;35.87
67942;SHT31;54731;42.600;23.476;2022-10-22T13:30:37;24.64;36.38
67942;SHT31;54731;42.600;23.476;2022-10-22T13:33:05;24.33;37.10
67942;SHT31;54731;42.600;23.476;2022-10-22T13:35:33;24.23;37.64
67942;SHT31;54731;42.600;23.476;2022-10-22T13:38:00;24.10;36.81
67942;SHT31;54731;42.600;23.476;2022-10-22T13:40:26;23.83;37.34
67942;SHT31;54731;42.600;23.476;2022-10-22T13:42:51;23.82;37.89
67942;SHT31;54731;42.600;23.476;2022-10-22T13:45:17;23.58;37.95
67942;SHT31;54731;42.600;23.476;2022-10-22T13:47:47;23.34;37.79
67942;SHT31;54731;42.600;23.476;2022-10-22T13:50:15;22.81;38.95
67942;SHT31;54731;42.600;23.476;2022-10-22T13:52:50;22.41;39.87
67942;SHT31;54731;42.600;23.476;2022-10-22T13:55:21;22.23;40.29
67942;SHT31;54731;42.600;23.476;2022-10-22T13:57:48;22.02;40.66
67942;SHT31;54731;42.600;23.476;2022-10-22T14:00:16;21.62;41.03
67942;SHT31;54731;42.600;23.476;2022-10-22T14:02:43;21.31;41.97
67942;SHT31;54731;42.600;23.476;2022-10-22T14:05:10;21.14;42.65
67942;SHT31;54731;42.600;23.476;2022-10-22T14:07:36;21.04;42.68
67942;SHT31;54731;42.600;23.476;2022-10-22T14:10:05;20.79;43.03
67942;SHT31;54731;42.600;23.476;2022-10-22T14:12:37;20.69;44.49
67942;SHT31;54731;42.600;23.476;2022-10-22T14:15:02;20.57;43.58
67942;SHT31;54731;42.600;23.476;2022-10-22T14:17:28;20.52;43.90
67942;SHT31;54731;42.600;23.476;2022-10-22T14:19:53;20.37;44.38
67942;SHT31;54731;42.600;23.476;2022-10-22T14:22:19;20.23;46.13
67942;SHT31;54731;42.600;23.476;2022-10-22T14:24:45;20.18;44.53
67942;SHT31;54731;42.600;23.476;2022-10-22T14:27:13;20.10;44.64
67942;SHT31;54731;42.600;23.476;2022-10-22T14:29:39;20.06;45.68
67942;SHT31;54731;42.600;23.476;2022-10-22T14:32:17;20.06;48.36
67942;SHT31;54731;42.600;23.476;2022-10-22T14:34:43;20.04;44.95
67942;SHT31;54731;42.600;23.476;2022-10-22T14:37:19;19.88;44.90
67942;SHT31;54731;42.600;23.476;2022-10-22T14:39:46;19.82;45.35
67942;SHT31;54731;42.600;23.476;2022-10-22T14:42:12;19.72;46.10
67942;SHT31;54731;42.600;23.476;2022-10-22T14:44:37;19.54;45.96
67942;SHT31;54731;42.600;23.476;2022-10-22T14:47:03;19.30;47.17
67942;SHT31;54731;42.600;23.476;2022-10-22T14:49:28;19.18;47.03
67942;SHT31;54731;42.600;23.476;2022-10-22T14:51:53;19.10;47.06
67942;SHT31;54731;42.600;23.476;2022-10-22T14:54:19;18.89;47.86
67942;SHT31;54731;42.600;23.476;2022-10-22T14:56:44;18.77;47.52
67942;SHT31;54731;42.600;23.476;2022-10-22T14:59:09;18.69;47.77
67942;SHT31;54731;42.600;23.476;2022-10-22T15:01:35;18.59;48.13
67942;SHT31;54731;42.600;23.476;2022-10-22T15:04:00;18.51;48.13
67942;SHT31;54731;42.600;23.476;2022-10-22T15:06:25;18.41;48.27
67942;SHT31;54731;42.600;23.476;2022-10-22T15:08:51;18.21;48.94
67942;SHT31;54731;42.600;23.476;2022-10-22T15:11:16;18.16;49.12
67942;SHT31;54731;42.600;23.476;2022-10-22T15:13:41;18.13;49.20
67942;SHT31;54731;42.600;23.476;2022-10-22T15:16:09;18.04;49.71
67942;SHT31;54731;42.600;23.476;2022-10-22T15:18:34;17.94;49.76
67942;SHT31;54731;42.600;23.476;2022-10-22T15:21:12;17.77;50.49
67942;SHT31;54731;42.600;23.476;2022-10-22T15:23:38;17.68;50.05
67942;SHT31;54731;42.600;23.476;2022-10-22T15:26:09;17.58;50.54
67942;SHT31;54731;42.600;23.476;2022-10-22T15:28:35;17.47;50.73
67942;SHT31;54731;42.600;23.476;2022-10-22T15:31:01;17.31;51.61
67942;SHT31;54731;42.600;23.476;2022-10-22T15:33:27;17.17;52.02
67942;SHT31;54731;42.600;23.476;2022-10-22T15:35:53;17.12;52.63
67942;SHT31;54731;42.600;23.476;2022-10-22T15:38:19;17.05;52.34
67942;SHT31;54731;42.600;23.476;2022-10-22T15:40:45;16.93;52.06
67942;SHT31;54731;42.600;23.476;2022-10-22T15:43:11;16.89;52.46
67942;SHT31;54731;42.600;23.476;2022-10-22T15:45:37;16.79;52.11
67942;SHT31;54731;42.600;23.476;2022-10-22T15:48:03;16.69;52.92
67942;SHT31;54731;42.600;23.476;2022-10-22T15:50:28;16.52;51.09
67942;SHT31;54731;42.600;23.476;2022-10-22T15:52:54;16.47;51.02
67942;SHT31;54731;42.600;23.476;2022-10-22T15:55:20;16.44;51.55
67942;SHT31;54731;42.600;23.476;2022-10-22T15:57:45;16.36;51.37
67942;SHT31;54731;42.600;23.476;2022-10-22T16:00:11;16.34;50.75
67942;SHT31;54731;42.600;23.476;2022-10-22T16:02:36;16.21;51.23
67942;SHT31;54731;42.600;23.476;2022-10-22T16:05:02;15.98;52.09
67942;SHT31;54731;42.600;23.476;2022-10-22T16:07:28;15.89;51.96
67942;SHT31;54731;42.600;23.476;2022-10-22T16:09:57;15.93;51.30
67942;SHT31;54731;42.600;23.476;2022-10-22T16:12:23;15.94;51.34
67942;SHT31;54731;42.600;23.476;2022-10-22T16:14:49;15.91;51.18
67942;SHT31;54731;42.600;23.476;2022-10-22T16:17:14;15.86;51.21
67942;SHT31;54731;42.600;23.476;2022-10-22T16:19:40;15.81;50.97
67942;SHT31;54731;42.600;23.476;2022-10-22T16:22:05;15.79;50.76
67942;SHT31;54731;42.600;23.476;2022-10-22T16:24:30;15.80;50.58
67942;SHT31;54731;42.600;23.476;2022-10-22T16:26:56;15.83;50.58
67942;SHT31;54731;42.600;23.476;2022-10-22T16:29:21;15.79;50.42
67942;SHT31;54731;42.600;23.476;2022-10-22T16:31:46;15.74;50.78
67942;SHT31;54731;42.600;23.476;2022-10-22T16:34:12;15.64;50.76
67942;SHT31;54731;42.600;23.476;2022-10-22T16:36:37;15.59;51.08
67942;SHT31;54731;42.600;23.476;2022-10-22T16:39:03;15.60;51.11
67942;SHT31;54731;42.600;23.476;2022-10-22T16:41:29;15.67;50.56
67942;SHT31;54731;42.600;23.476;2022-10-22T16:43:54;15.69;50.61
67942;SHT31;54731;42.600;23.476;2022-10-22T16:46:21;15.69;50.53
67942;SHT31;54731;42.600;23.476;2022-10-22T16:48:47;15.63;50.58
67942;SHT31;54731;42.600;23.476;2022-10-22T16:51:15;15.63;50.90
67942;SHT31;54731;42.600;23.476;2022-10-22T16:53:40;15.67;50.63
67942;SHT31;54731;42.600;23.476;2022-10-22T16:56:10;15.60;50.92
67942;SHT31;54731;42.600;23.476;2022-10-22T16:58:36;15.66;50.76
67942;SHT31;54731;42.600;23.476;2022-10-22T17:01:06;15.67;50.58
67942;SHT31;54731;42.600;23.476;2022-10-22T17:03:32;15.70;50.76
67942;SHT31;54731;42.600;23.476;2022-10-22T17:05:58;15.73;50.85
67942;SHT31;54731;42.600;23.476;2022-10-22T17:08:24;15.67;50.75
67942;SHT31;54731;42.600;23.476;2022-10-22T17:10:49;15.66;50.85
67942;SHT31;54731;42.600;23.476;2022-10-22T17:13:14;15.66;50.93
67942;SHT31;54731;42.600;23.476;2022-10-22T17:15:40;15.66;50.89
67942;SHT31;54731;42.600;23.476;2022-10-22T17:18:05;15.70;50.62
67942;SHT31;54731;42.600;23.476;2022-10-22T17:20:30;15.73;50.58